sensor_id;sensor_type;location;lat;lon;timestamp;P1;durP1;ratioP1;P2;durP2;ratioP2
11533;SDS011;5823;50.588;8.462;2023-09-19T00:00:36;0.00;;;0.00;;
11533;SDS011;5823;50.588;8.462;2023-09-19T00:03:02;0.00;;;0.00;;
11533;SDS011;5823;50.588;8.462;2023-09-19T00:05:34;0.05;;;0.05;;
11533;SDS011;5823;50.588;8.462;2023-09-19T00:08:01;0.10;;;0.10;;
11533;SDS011;5823;50.588;8.462;2023-09-19T00:10:29;0.00;;;0.00;;
11533;SDS011;5823;50.588;8.462;2023-09-19T00:12:56;0.10;;;0.10;;
11533;SDS011;5823;50.588;8.462;2023-09-19T00:15:24;0.10;;;0.10;;
11533;SDS011;5823;50.588;8.462;2023-09-19T00:17:53;0.10;;;0.10;;
11533;SDS011;5823;50.588;8.462;2023-09-19T00:20:20;0.10;;;0.10;;
11533;SDS011;5823;50.588;8.462;2023-09-19T00:22:49;0.20;;;0.20;;
11533;SDS011;5823;50.588;8.462;2023-09-19T00:25:15;0.00;;;0.00;;
11533;SDS011;5823;50.588;8.462;2023-09-19T00:27:42;0.10;;;0.10;;
11533;SDS011;5823;50.588;8.462;2023-09-19T00:30:10;0.10;;;0.10;;
11533;SDS011;5823;50.588;8.462;2023-09-19T00:32:40;0.00;;;0.00;;
11533;SDS011;5823;50.588;8.462;2023-09-19T00:35:07;0.08;;;0.08;;
11533;SDS011;5823;50.588;8.462;2023-09-19T00:37:34;0.00;;;0.00;;
11533;SDS011;5823;50.588;8.462;2023-09-19T00:40:02;0.10;;;0.10;;
11533;SDS011;5823;50.588;8.462;2023-09-19T00:42:30;0.10;;;0.08;;
11533;SDS011;5823;50.588;8.462;2023-09-19T00:44:56;0.10;;;0.10;;
11533;SDS011;5823;50.588;8.462;2023-09-19T00:47:23;0.05;;;0.05;;
11533;SDS011;5823;50.588;8.462;2023-09-19T00:49:50;0.10;;;0.10;;
11533;SDS011;5823;50.588;8.462;2023-09-19T00:52:17;0.15;;;0.15;;
11533;SDS011;5823;50.588;8.462;2023-09-19T00:54:45;0.10;;;0.10;;
11533;SDS011;5823;50.588;8.462;2023-09-19T00:57:13;0.00;;;0.00;;
11533;SDS011;5823;50.588;8.462;2023-09-19T00:59:39;0.20;;;0.20;;
11533;SDS011;5823;50.588;8.462;2023-09-19T01:02:06;0.25;;;0.10;;
11533;SDS011;5823;50.588;8.462;2023-09-19T01:04:33;0.15;;;0.15;;
11533;SDS011;5823;50.588;8.462;2023-09-19T01:06:59;0.10;;;0.10;;
11533;SDS011;5823;50.588;8.462;2023-09-19T01:09:26;0.15;;;0.15;;
11533;SDS011;5823;50.588;8.462;2023-09-19T01:11:53;0.10;;;0.10;;
11533;SDS011;5823;50.588;8.462;2023-09-19T01:14:26;0.80;;;0.13;;
11533;SDS011;5823;50.588;8.462;2023-09-19T01:16:56;0.10;;;0.10;;
11533;SDS011;5823;50.588;8.462;2023-09-19T01:19:35;0.10;;;0.10;;
11533;SDS011;5823;50.588;8.462;2023-09-19T01:22:10;0.10;;;0.10;;
11533;SDS011;5823;50.588;8.462;2023-09-19T01:25:03;0.00;;;0.00;;
11533;SDS011;5823;50.588;8.462;2023-09-19T01:27:43;0.10;;;0.10;;
11533;SDS011;5823;50.588;8.462;2023-09-19T01:30:17;0.10;;;0.10;;
11533;SDS011;5823;50.588;8.462;2023-09-19T01:32:44;0.13;;;0.13;;
11533;SDS011;5823;50.588;8.462;2023-09-19T01:35:11;0.10;;;0.10;;
11533;SDS011;5823;50.588;8.462;2023-09-19T01:37:38;0.10;;;0.10;;
11533;SDS011;5823;50.588;8.462;2023-09-19T01:40:05;0.20;;;0.20;;
11533;SDS011;5823;50.588;8.462;2023-09-19T01:42:40;0.10;;;0.10;;
11533;SDS011;5823;50.588;8.462;2023-09-19T01:45:09;0.10;;;0.10;;
11533;SDS011;5823;50.588;8.462;2023-09-19T01:47:41;0.15;;;0.15;;
11533;SDS011;5823;50.588;8.462;2023-09-19T01:50:11;0.43;;;0.15;;
11533;SDS011;5823;50.588;8.462;2023-09-19T01:52:39;0.00;;;0.00;;
11533;SDS011;5823;50.588;8.462;2023-09-19T01:55:09;0.20;;;0.20;;
11533;SDS011;5823;50.588;8.462;2023-09-19T01:57:37;0.10;;;0.10;;
11533;SDS011;5823;50.588;8.462;2023-09-19T02:00:07;0.17;;;0.17;;
11533;SDS011;5823;50.588;8.462;2023-09-19T02:02:34;0.03;;;0.03;;
11533;SDS011;5823;50.588;8.462;2023-09-19T02:05:02;0.10;;;0.10;;
11533;SDS011;5823;50.588;8.462;2023-09-19T02:07:28;0.10;;;0.10;;
11533;SDS011;5823;50.588;8.462;2023-09-19T02:09:56;0.00;;;0.00;;
11533;SDS011;5823;50.588;8.462;2023-09-19T02:12:24;0.10;;;0.10;;
11533;SDS011;5823;50.588;8.462;2023-09-19T02:14:50;0.00;;;0.00;;
11533;SDS011;5823;50.588;8.462;2023-09-19T02:17:16;0.10;;;0.10;;
11533;SDS011;5823;50.588;8.462;2023-09-19T02:19:42;0.00;;;0.00;;
11533;SDS011;5823;50.588;8.462;2023-09-19T02:22:10;0.00;;;0.00;;
11533;SDS011;5823;50.588;8.462;2023-09-19T02:24:36;0.30;;;0.20;;
11533;SDS011;5823;50.588;8.462;2023-09-19T02:27:03;0.08;;;0.08;;
11533;SDS011;5823;50.588;8.462;2023-09-19T02:29:32;0.20;;;0.20;;
11533;SDS011;5823;50.588;8.462;2023-09-19T02:31:59;0.10;;;0.10;;
11533;SDS011;5823;50.588;8.462;2023-09-19T02:34:27;0.10;;;0.10;;
11533;SDS011;5823;50.588;8.462;2023-09-19T02:36:54;0.17;;;0.10;;
11533;SDS011;5823;50.588;8.462;2023-09-19T02:39:22;0.10;;;0.10;;
11533;SDS011;5823;50.588;8.462;2023-09-19T02:41:49;0.15;;;0.15;;
11533;SDS011;5823;50.588;8.462;2023-09-19T02:44:15;0.10;;;0.10;;
11533;SDS011;5823;50.588;8.462;2023-09-19T02:46:42;0.20;;;0.20;;
11533;SDS011;5823;50.588;8.462;2023-09-19T02:49:08;0.00;;;0.00;;
11533;SDS011;5823;50.588;8.462;2023-09-19T02:51:34;0.10;;;0.10;;
11533;SDS011;5823;50.588;8.462;2023-09-19T02:54:01;0.10;;;0.10;;
11533;SDS011;5823;50.588;8.462;2023-09-19T02:56:30;0.17;;;0.17;;
11533;SDS011;5823;50.588;8.462;2023-09-19T02:58:57;0.10;;;0.10;;
11533;SDS011;5823;50.588;8.462;2023-09-19T03:01:25;0.10;;;0.10;;
11533;SDS011;5823;50.588;8.462;2023-09-19T03:03:52;0.10;;;0.10;;
11533;SDS011;5823;50.588;8.462;2023-09-19T03:06:19;0.10;;;0.10;;
11533;SDS011;5823;50.588;8.462;2023-09-19T03:08:45;0.10;;;0.10;;
11533;SDS011;5823;50.588;8.462;2023-09-19T03:11:14;0.10;;;0.10;;
11533;SDS011;5823;50.588;8.462;2023-09-19T03:13:43;0.35;;;0.22;;
11533;SDS011;5823;50.588;8.462;2023-09-19T03:16:10;0.10;;;0.10;;
11533;SDS011;5823;50.588;8.462;2023-09-19T03:18:39;0.20;;;0.20;;
11533;SDS011;5823;50.588;8.462;2023-09-19T03:21:06;0.10;;;0.10;;
11533;SDS011;5823;50.588;8.462;2023-09-19T03:23:32;0.13;;;0.13;;
11533;SDS011;5823;50.588;8.462;2023-09-19T03:25:58;0.00;;;0.00;;
11533;SDS011;5823;50.588;8.462;2023-09-19T03:28:25;0.00;;;0.00;;
11533;SDS011;5823;50.588;8.462;2023-09-19T03:31:02;0.32;;;0.32;;
11533;SDS011;5823;50.588;8.462;2023-09-19T03:33:28;0.15;;;0.15;;
11533;SDS011;5823;50.588;8.462;2023-09-19T03:35:56;0.20;;;0.20;;
11533;SDS011;5823;50.588;8.462;2023-09-19T03:38:23;0.10;;;0.10;;
11533;SDS011;5823;50.588;8.462;2023-09-19T03:40:49;0.28;;;0.28;;
11533;SDS011;5823;50.588;8.462;2023-09-19T03:43:15;0.20;;;0.20;;
11533;SDS011;5823;50.588;8.462;2023-09-19T03:45:42;0.10;;;0.10;;
11533;SDS011;5823;50.588;8.462;2023-09-19T03:48:11;0.30;;;0.30;;
11533;SDS011;5823;50.588;8.462;2023-09-19T03:50:37;1.00;;;0.50;;
11533;SDS011;5823;50.588;8.462;2023-09-19T03:53:04;1.23;;;0.85;;
11533;SDS011;5823;50.588;8.462;2023-09-19T03:55:32;0.80;;;0.47;;
11533;SDS011;5823;50.588;8.462;2023-09-19T03:58:00;0.65;;;0.60;;
11533;SDS011;5823;50.588;8.462;2023-09-19T04:00:26;0.30;;;0.30;;
11533;SDS011;5823;50.588;8.462;2023-09-19T04:02:54;0.45;;;0.30;;
11533;SDS011;5823;50.588;8.462;2023-09-19T04:05:23;0.20;;;0.20;;
11533;SDS011;5823;50.588;8.462;2023-09-19T04:07:49;0.20;;;0.20;;
11533;SDS011;5823;50.588;8.462;2023-09-19T04:10:16;1.35;;;0.30;;
11533;SDS011;5823;50.588;8.462;2023-09-19T04:12:50;0.20;;;0.20;;
11533;SDS011;5823;50.588;8.462;2023-09-19T04:15:16;0.30;;;0.30;;
11533;SDS011;5823;50.588;8.462;2023-09-19T04:17:42;0.20;;;0.20;;
11533;SDS011;5823;50.588;8.462;2023-09-19T04:20:09;0.20;;;0.20;;
11533;SDS011;5823;50.588;8.462;2023-09-19T04:22:38;0.20;;;0.20;;
11533;SDS011;5823;50.588;8.462;2023-09-19T04:25:05;0.10;;;0.10;;
11533;SDS011;5823;50.588;8.462;2023-09-19T04:27:31;0.10;;;0.10;;
11533;SDS011;5823;50.588;8.462;2023-09-19T04:29:58;0.20;;;0.15;;
11533;SDS011;5823;50.588;8.462;2023-09-19T04:32:24;0.20;;;0.20;;
11533;SDS011;5823;50.588;8.462;2023-09-19T04:34:54;0.05;;;0.05;;
11533;SDS011;5823;50.588;8.462;2023-09-19T04:37:24;0.30;;;0.20;;
11533;SDS011;5823;50.588;8.462;2023-09-19T04:39:52;0.10;;;0.10;;
11533;SDS011;5823;50.588;8.462;2023-09-19T04:42:19;0.10;;;0.10;;
11533;SDS011;5823;50.588;8.462;2023-09-19T04:44:46;0.10;;;0.10;;
11533;SDS011;5823;50.588;8.462;2023-09-19T04:47:14;0.35;;;0.15;;
11533;SDS011;5823;50.588;8.462;2023-09-19T04:49:41;0.40;;;0.30;;
11533;SDS011;5823;50.588;8.462;2023-09-19T04:52:07;0.20;;;0.20;;
11533;SDS011;5823;50.588;8.462;2023-09-19T04:54:33;0.32;;;0.25;;
11533;SDS011;5823;50.588;8.462;2023-09-19T04:57:01;0.20;;;0.20;;
11533;SDS011;5823;50.588;8.462;2023-09-19T04:59:27;0.35;;;0.20;;
11533;SDS011;5823;50.588;8.462;2023-09-19T05:01:54;0.30;;;0.20;;
11533;SDS011;5823;50.588;8.462;2023-09-19T05:04:21;0.30;;;0.22;;
11533;SDS011;5823;50.588;8.462;2023-09-19T05:06:47;0.20;;;0.20;;
11533;SDS011;5823;50.588;8.462;2023-09-19T05:09:14;0.10;;;0.10;;
11533;SDS011;5823;50.588;8.462;2023-09-19T05:11:41;0.20;;;0.20;;
11533;SDS011;5823;50.588;8.462;2023-09-19T05:14:09;0.17;;;0.17;;
11533;SDS011;5823;50.588;8.462;2023-09-19T05:16:36;0.10;;;0.10;;
11533;SDS011;5823;50.588;8.462;2023-09-19T05:19:02;0.13;;;0.13;;
11533;SDS011;5823;50.588;8.462;2023-09-19T05:21:30;0.20;;;0.20;;
11533;SDS011;5823;50.588;8.462;2023-09-19T05:23:56;0.25;;;0.20;;
11533;SDS011;5823;50.588;8.462;2023-09-19T05:26:22;0.10;;;0.10;;
11533;SDS011;5823;50.588;8.462;2023-09-19T05:28:49;0.20;;;0.20;;
11533;SDS011;5823;50.588;8.462;2023-09-19T05:31:16;0.20;;;0.20;;
11533;SDS011;5823;50.588;8.462;2023-09-19T05:33:42;0.22;;;0.22;;
11533;SDS011;5823;50.588;8.462;2023-09-19T05:36:09;0.30;;;0.17;;
11533;SDS011;5823;50.588;8.462;2023-09-19T05:38:37;0.13;;;0.13;;
11533;SDS011;5823;50.588;8.462;2023-09-19T05:41:05;0.03;;;0.03;;
11533;SDS011;5823;50.588;8.462;2023-09-19T05:43:32;0.32;;;0.20;;
11533;SDS011;5823;50.588;8.462;2023-09-19T05:45:59;0.10;;;0.10;;
11533;SDS011;5823;50.588;8.462;2023-09-19T05:48:27;0.20;;;0.20;;
11533;SDS011;5823;50.588;8.462;2023-09-19T05:50:53;0.03;;;0.03;;
11533;SDS011;5823;50.588;8.462;2023-09-19T05:53:19;0.20;;;0.20;;
11533;SDS011;5823;50.588;8.462;2023-09-19T05:55:45;0.28;;;0.17;;
11533;SDS011;5823;50.588;8.462;2023-09-19T05:58:12;0.10;;;0.10;;
11533;SDS011;5823;50.588;8.462;2023-09-19T06:00:39;0.13;;;0.13;;
11533;SDS011;5823;50.588;8.462;2023-09-19T06:03:06;0.20;;;0.20;;
11533;SDS011;5823;50.588;8.462;2023-09-19T06:05:34;0.10;;;0.10;;
11533;SDS011;5823;50.588;8.462;2023-09-19T06:08:01;0.10;;;0.10;;
11533;SDS011;5823;50.588;8.462;2023-09-19T06:10:32;0.50;;;0.30;;
11533;SDS011;5823;50.588;8.462;2023-09-19T06:12:59;0.20;;;0.20;;
11533;SDS011;5823;50.588;8.462;2023-09-19T06:15:25;0.63;;;0.28;;
11533;SDS011;5823;50.588;8.462;2023-09-19T06:17:52;0.17;;;0.15;;
11533;SDS011;5823;50.588;8.462;2023-09-19T06:20:20;0.10;;;0.10;;
11533;SDS011;5823;50.588;8.462;2023-09-19T06:22:49;0.30;;;0.30;;
11533;SDS011;5823;50.588;8.462;2023-09-19T06:25:16;0.17;;;0.17;;
11533;SDS011;5823;50.588;8.462;2023-09-19T06:27:44;0.13;;;0.13;;
11533;SDS011;5823;50.588;8.462;2023-09-19T06:30:10;0.40;;;0.22;;
11533;SDS011;5823;50.588;8.462;2023-09-19T06:32:38;0.38;;;0.20;;
11533;SDS011;5823;50.588;8.462;2023-09-19T06:35:04;0.52;;;0.38;;
11533;SDS011;5823;50.588;8.462;2023-09-19T06:37:33;0.00;;;0.00;;
11533;SDS011;5823;50.588;8.462;2023-09-19T06:40:01;0.22;;;0.20;;
11533;SDS011;5823;50.588;8.462;2023-09-19T06:42:30;0.20;;;0.20;;
11533;SDS011;5823;50.588;8.462;2023-09-19T06:44:57;0.47;;;0.30;;
11533;SDS011;5823;50.588;8.462;2023-09-19T06:47:23;0.32;;;0.32;;
11533;SDS011;5823;50.588;8.462;2023-09-19T06:49:50;0.20;;;0.20;;
11533;SDS011;5823;50.588;8.462;2023-09-19T06:52:17;0.15;;;0.15;;
11533;SDS011;5823;50.588;8.462;2023-09-19T06:54:47;0.35;;;0.28;;
11533;SDS011;5823;50.588;8.462;2023-09-19T06:57:16;0.10;;;0.10;;
11533;SDS011;5823;50.588;8.462;2023-09-19T06:59:43;0.17;;;0.17;;
11533;SDS011;5823;50.588;8.462;2023-09-19T07:02:10;0.30;;;0.28;;
11533;SDS011;5823;50.588;8.462;2023-09-19T07:04:36;0.20;;;0.10;;
11533;SDS011;5823;50.588;8.462;2023-09-19T07:07:02;0.10;;;0.10;;
11533;SDS011;5823;50.588;8.462;2023-09-19T07:09:28;0.17;;;0.08;;
11533;SDS011;5823;50.588;8.462;2023-09-19T07:11:55;0.10;;;0.10;;
11533;SDS011;5823;50.588;8.462;2023-09-19T07:14:22;0.20;;;0.20;;
11533;SDS011;5823;50.588;8.462;2023-09-19T07:16:48;0.20;;;0.20;;
11533;SDS011;5823;50.588;8.462;2023-09-19T07:19:15;0.30;;;0.20;;
11533;SDS011;5823;50.588;8.462;2023-09-19T07:21:42;0.20;;;0.20;;
11533;SDS011;5823;50.588;8.462;2023-09-19T07:24:08;0.05;;;0.05;;
11533;SDS011;5823;50.588;8.462;2023-09-19T07:26:34;0.10;;;0.10;;
11533;SDS011;5823;50.588;8.462;2023-09-19T07:29:01;0.10;;;0.10;;
11533;SDS011;5823;50.588;8.462;2023-09-19T07:31:30;0.03;;;0.03;;
11533;SDS011;5823;50.588;8.462;2023-09-19T07:33:56;0.45;;;0.13;;
11533;SDS011;5823;50.588;8.462;2023-09-19T07:36:23;0.00;;;0.00;;
11533;SDS011;5823;50.588;8.462;2023-09-19T07:38:49;0.10;;;0.10;;
11533;SDS011;5823;50.588;8.462;2023-09-19T07:41:15;0.10;;;0.10;;
11533;SDS011;5823;50.588;8.462;2023-09-19T07:43:41;0.32;;;0.20;;
11533;SDS011;5823;50.588;8.462;2023-09-19T07:46:09;0.52;;;0.20;;
11533;SDS011;5823;50.588;8.462;2023-09-19T07:48:37;0.45;;;0.30;;
11533;SDS011;5823;50.588;8.462;2023-09-19T07:51:05;0.20;;;0.20;;
11533;SDS011;5823;50.588;8.462;2023-09-19T07:53:32;0.10;;;0.10;;
11533;SDS011;5823;50.588;8.462;2023-09-19T07:56:03;0.40;;;0.30;;
11533;SDS011;5823;50.588;8.462;2023-09-19T07:58:29;0.05;;;0.05;;
11533;SDS011;5823;50.588;8.462;2023-09-19T08:00:56;0.80;;;0.30;;
11533;SDS011;5823;50.588;8.462;2023-09-19T08:03:22;0.03;;;0.03;;
11533;SDS011;5823;50.588;8.462;2023-09-19T08:05:49;0.10;;;0.10;;
11533;SDS011;5823;50.588;8.462;2023-09-19T08:08:16;0.10;;;0.10;;
11533;SDS011;5823;50.588;8.462;2023-09-19T08:10:42;0.22;;;0.22;;
11533;SDS011;5823;50.588;8.462;2023-09-19T08:13:10;0.30;;;0.30;;
11533;SDS011;5823;50.588;8.462;2023-09-19T08:15:42;0.70;;;0.40;;
11533;SDS011;5823;50.588;8.462;2023-09-19T08:18:08;0.70;;;0.50;;
11533;SDS011;5823;50.588;8.462;2023-09-19T08:20:37;0.32;;;0.30;;
11533;SDS011;5823;50.588;8.462;2023-09-19T08:23:04;0.32;;;0.20;;
11533;SDS011;5823;50.588;8.462;2023-09-19T08:25:31;0.30;;;0.30;;
11533;SDS011;5823;50.588;8.462;2023-09-19T08:27:57;0.40;;;0.40;;
11533;SDS011;5823;50.588;8.462;2023-09-19T08:30:25;0.40;;;0.20;;
11533;SDS011;5823;50.588;8.462;2023-09-19T08:32:56;0.30;;;0.25;;
11533;SDS011;5823;50.588;8.462;2023-09-19T08:35:23;0.20;;;0.20;;
11533;SDS011;5823;50.588;8.462;2023-09-19T08:37:49;0.30;;;0.30;;
11533;SDS011;5823;50.588;8.462;2023-09-19T08:40:17;0.52;;;0.30;;
11533;SDS011;5823;50.588;8.462;2023-09-19T08:42:47;0.57;;;0.40;;
11533;SDS011;5823;50.588;8.462;2023-09-19T08:45:13;0.68;;;0.30;;
11533;SDS011;5823;50.588;8.462;2023-09-19T08:47:41;0.20;;;0.20;;
11533;SDS011;5823;50.588;8.462;2023-09-19T08:50:11;0.45;;;0.45;;
11533;SDS011;5823;50.588;8.462;2023-09-19T08:52:40;1.15;;;0.68;;
11533;SDS011;5823;50.588;8.462;2023-09-19T08:55:07;0.45;;;0.38;;
11533;SDS011;5823;50.588;8.462;2023-09-19T08:57:38;0.40;;;0.35;;
11533;SDS011;5823;50.588;8.462;2023-09-19T09:00:07;0.40;;;0.38;;
11533;SDS011;5823;50.588;8.462;2023-09-19T09:02:35;0.60;;;0.45;;
11533;SDS011;5823;50.588;8.462;2023-09-19T09:05:03;0.82;;;0.50;;
11533;SDS011;5823;50.588;8.462;2023-09-19T09:07:30;1.25;;;0.80;;
11533;SDS011;5823;50.588;8.462;2023-09-19T09:09:59;0.45;;;0.40;;
11533;SDS011;5823;50.588;8.462;2023-09-19T09:12:25;0.43;;;0.30;;
11533;SDS011;5823;50.588;8.462;2023-09-19T09:14:54;1.00;;;0.20;;
11533;SDS011;5823;50.588;8.462;2023-09-19T09:17:22;0.25;;;0.22;;
11533;SDS011;5823;50.588;8.462;2023-09-19T09:19:49;0.73;;;0.57;;
11533;SDS011;5823;50.588;8.462;2023-09-19T09:22:18;0.90;;;0.50;;
11533;SDS011;5823;50.588;8.462;2023-09-19T09:24:52;1.20;;;0.60;;
11533;SDS011;5823;50.588;8.462;2023-09-19T09:27:19;0.52;;;0.47;;
11533;SDS011;5823;50.588;8.462;2023-09-19T09:29:49;1.20;;;0.50;;
11533;SDS011;5823;50.588;8.462;2023-09-19T09:32:17;0.70;;;0.50;;
11533;SDS011;5823;50.588;8.462;2023-09-19T09:34:45;0.65;;;0.40;;
11533;SDS011;5823;50.588;8.462;2023-09-19T09:37:12;0.13;;;0.13;;
11533;SDS011;5823;50.588;8.462;2023-09-19T09:39:40;0.40;;;0.25;;
11533;SDS011;5823;50.588;8.462;2023-09-19T09:42:18;0.40;;;0.40;;
11533;SDS011;5823;50.588;8.462;2023-09-19T09:45:02;0.22;;;0.20;;
11533;SDS011;5823;50.588;8.462;2023-09-19T09:47:42;0.47;;;0.22;;
11533;SDS011;5823;50.588;8.462;2023-09-19T09:50:22;1.00;;;0.43;;
11533;SDS011;5823;50.588;8.462;2023-09-19T09:52:54;0.73;;;0.40;;
11533;SDS011;5823;50.588;8.462;2023-09-19T09:55:25;0.25;;;0.25;;
11533;SDS011;5823;50.588;8.462;2023-09-19T09:57:58;0.10;;;0.10;;
11533;SDS011;5823;50.588;8.462;2023-09-19T10:00:51;0.00;;;0.00;;
11533;SDS011;5823;50.588;8.462;2023-09-19T10:03:22;0.35;;;0.20;;
11533;SDS011;5823;50.588;8.462;2023-09-19T10:05:57;0.30;;;0.22;;
11533;SDS011;5823;50.588;8.462;2023-09-19T10:08:27;0.90;;;0.20;;
11533;SDS011;5823;50.588;8.462;2023-09-19T10:10:56;1.05;;;0.50;;
11533;SDS011;5823;50.588;8.462;2023-09-19T10:13:30;0.82;;;0.65;;
11533;SDS011;5823;50.588;8.462;2023-09-19T10:15:58;0.50;;;0.50;;
11533;SDS011;5823;50.588;8.462;2023-09-19T10:18:27;0.57;;;0.52;;
11533;SDS011;5823;50.588;8.462;2023-09-19T10:20:54;1.13;;;0.60;;
11533;SDS011;5823;50.588;8.462;2023-09-19T10:23:21;0.52;;;0.52;;
11533;SDS011;5823;50.588;8.462;2023-09-19T10:25:48;0.50;;;0.40;;
11533;SDS011;5823;50.588;8.462;2023-09-19T10:28:15;1.27;;;0.70;;
11533;SDS011;5823;50.588;8.462;2023-09-19T10:30:46;1.45;;;0.65;;
11533;SDS011;5823;50.588;8.462;2023-09-19T10:33:14;0.50;;;0.50;;
11533;SDS011;5823;50.588;8.462;2023-09-19T10:35:43;1.15;;;0.70;;
11533;SDS011;5823;50.588;8.462;2023-09-19T10:38:10;0.57;;;0.43;;
11533;SDS011;5823;50.588;8.462;2023-09-19T10:40:37;1.05;;;0.80;;
11533;SDS011;5823;50.588;8.462;2023-09-19T10:43:08;0.57;;;0.55;;
11533;SDS011;5823;50.588;8.462;2023-09-19T10:48:12;0.52;;;0.45;;
11533;SDS011;5823;50.588;8.462;2023-09-19T10:50:43;0.95;;;0.65;;
11533;SDS011;5823;50.588;8.462;2023-09-19T10:53:11;0.98;;;0.68;;
11533;SDS011;5823;50.588;8.462;2023-09-19T10:55:38;2.90;;;0.77;;
11533;SDS011;5823;50.588;8.462;2023-09-19T10:58:05;0.95;;;0.50;;
11533;SDS011;5823;50.588;8.462;2023-09-19T11:00:51;0.40;;;0.40;;
11533;SDS011;5823;50.588;8.462;2023-09-19T11:03:19;0.45;;;0.40;;
11533;SDS011;5823;50.588;8.462;2023-09-19T11:08:45;0.50;;;0.47;;
11533;SDS011;5823;50.588;8.462;2023-09-19T11:16:39;0.32;;;0.30;;
11533;SDS011;5823;50.588;8.462;2023-09-19T11:19:05;0.60;;;0.52;;
11533;SDS011;5823;50.588;8.462;2023-09-19T11:21:39;0.55;;;0.47;;
11533;SDS011;5823;50.588;8.462;2023-09-19T11:27:08;0.73;;;0.50;;
11533;SDS011;5823;50.588;8.462;2023-09-19T11:29:35;0.75;;;0.60;;
11533;SDS011;5823;50.588;8.462;2023-09-19T11:32:02;0.93;;;0.70;;
11533;SDS011;5823;50.588;8.462;2023-09-19T11:34:37;0.52;;;0.40;;
11533;SDS011;5823;50.588;8.462;2023-09-19T11:37:03;0.73;;;0.57;;
11533;SDS011;5823;50.588;8.462;2023-09-19T11:40:05;1.73;;;0.55;;
11533;SDS011;5823;50.588;8.462;2023-09-19T11:42:42;0.65;;;0.50;;
11533;SDS011;5823;50.588;8.462;2023-09-19T11:47:51;1.02;;;0.50;;
11533;SDS011;5823;50.588;8.462;2023-09-19T11:50:18;0.93;;;0.47;;
11533;SDS011;5823;50.588;8.462;2023-09-19T11:52:45;1.00;;;0.60;;
11533;SDS011;5823;50.588;8.462;2023-09-19T11:55:11;0.43;;;0.32;;
11533;SDS011;5823;50.588;8.462;2023-09-19T11:57:39;0.43;;;0.43;;
11533;SDS011;5823;50.588;8.462;2023-09-19T12:00:10;0.40;;;0.40;;
11533;SDS011;5823;50.588;8.462;2023-09-19T12:02:42;0.40;;;0.40;;
11533;SDS011;5823;50.588;8.462;2023-09-19T12:05:12;0.40;;;0.40;;
11533;SDS011;5823;50.588;8.462;2023-09-19T12:07:43;0.40;;;0.40;;
11533;SDS011;5823;50.588;8.462;2023-09-19T12:10:11;1.20;;;0.88;;
11533;SDS011;5823;50.588;8.462;2023-09-19T12:12:45;0.85;;;0.63;;
11533;SDS011;5823;50.588;8.462;2023-09-19T12:15:14;0.47;;;0.47;;
11533;SDS011;5823;50.588;8.462;2023-09-19T12:17:40;1.23;;;0.55;;
11533;SDS011;5823;50.588;8.462;2023-09-19T12:20:08;0.50;;;0.35;;
11533;SDS011;5823;50.588;8.462;2023-09-19T12:22:39;0.47;;;0.47;;
11533;SDS011;5823;50.588;8.462;2023-09-19T12:25:05;0.68;;;0.40;;
11533;SDS011;5823;50.588;8.462;2023-09-19T12:27:40;0.20;;;0.17;;
11533;SDS011;5823;50.588;8.462;2023-09-19T12:30:08;0.30;;;0.30;;
11533;SDS011;5823;50.588;8.462;2023-09-19T12:32:36;0.68;;;0.60;;
11533;SDS011;5823;50.588;8.462;2023-09-19T12:35:05;1.55;;;0.50;;
11533;SDS011;5823;50.588;8.462;2023-09-19T12:37:36;0.50;;;0.50;;
11533;SDS011;5823;50.588;8.462;2023-09-19T12:40:05;1.02;;;0.70;;
11533;SDS011;5823;50.588;8.462;2023-09-19T12:42:42;0.30;;;0.30;;
11533;SDS011;5823;50.588;8.462;2023-09-19T12:45:09;0.43;;;0.43;;
11533;SDS011;5823;50.588;8.462;2023-09-19T12:47:39;0.90;;;0.45;;
11533;SDS011;5823;50.588;8.462;2023-09-19T12:50:08;0.73;;;0.68;;
11533;SDS011;5823;50.588;8.462;2023-09-19T12:52:38;0.52;;;0.52;;
11533;SDS011;5823;50.588;8.462;2023-09-19T12:55:05;0.40;;;0.40;;
11533;SDS011;5823;50.588;8.462;2023-09-19T12:57:32;0.40;;;0.40;;
11533;SDS011;5823;50.588;8.462;2023-09-19T12:59:59;0.93;;;0.55;;
11533;SDS011;5823;50.588;8.462;2023-09-19T13:02:26;1.55;;;0.70;;
11533;SDS011;5823;50.588;8.462;2023-09-19T13:04:54;0.88;;;0.65;;
11533;SDS011;5823;50.588;8.462;2023-09-19T13:07:40;0.98;;;0.52;;
11533;SDS011;5823;50.588;8.462;2023-09-19T13:10:08;0.63;;;0.50;;
11533;SDS011;5823;50.588;8.462;2023-09-19T13:12:35;0.68;;;0.50;;
11533;SDS011;5823;50.588;8.462;2023-09-19T13:15:09;1.10;;;0.45;;
11533;SDS011;5823;50.588;8.462;2023-09-19T13:17:44;0.50;;;0.38;;
11533;SDS011;5823;50.588;8.462;2023-09-19T13:20:22;0.68;;;0.43;;
11533;SDS011;5823;50.588;8.462;2023-09-19T13:22:52;0.43;;;0.43;;
11533;SDS011;5823;50.588;8.462;2023-09-19T13:25:20;0.52;;;0.50;;
11533;SDS011;5823;50.588;8.462;2023-09-19T13:27:47;1.25;;;0.70;;
11533;SDS011;5823;50.588;8.462;2023-09-19T13:30:16;1.17;;;0.55;;
11533;SDS011;5823;50.588;8.462;2023-09-19T13:32:42;1.10;;;0.47;;
11533;SDS011;5823;50.588;8.462;2023-09-19T13:35:09;0.50;;;0.40;;
11533;SDS011;5823;50.588;8.462;2023-09-19T13:37:37;0.65;;;0.50;;
11533;SDS011;5823;50.588;8.462;2023-09-19T13:40:06;0.20;;;0.20;;
11533;SDS011;5823;50.588;8.462;2023-09-19T13:42:32;1.10;;;0.40;;
11533;SDS011;5823;50.588;8.462;2023-09-19T13:44:59;0.47;;;0.47;;
11533;SDS011;5823;50.588;8.462;2023-09-19T13:47:25;0.30;;;0.30;;
11533;SDS011;5823;50.588;8.462;2023-09-19T13:49:51;0.40;;;0.40;;
11533;SDS011;5823;50.588;8.462;2023-09-19T13:52:18;0.60;;;0.60;;
11533;SDS011;5823;50.588;8.462;2023-09-19T13:54:46;0.43;;;0.43;;
11533;SDS011;5823;50.588;8.462;2023-09-19T13:57:12;0.93;;;0.50;;
11533;SDS011;5823;50.588;8.462;2023-09-19T13:59:39;0.50;;;0.50;;
11533;SDS011;5823;50.588;8.462;2023-09-19T14:02:05;0.75;;;0.45;;
11533;SDS011;5823;50.588;8.462;2023-09-19T14:04:32;0.50;;;0.50;;
11533;SDS011;5823;50.588;8.462;2023-09-19T14:06:59;0.25;;;0.20;;
11533;SDS011;5823;50.588;8.462;2023-09-19T14:09:25;0.30;;;0.30;;
11533;SDS011;5823;50.588;8.462;2023-09-19T14:11:53;0.57;;;0.17;;
11533;SDS011;5823;50.588;8.462;2023-09-19T14:14:19;0.57;;;0.57;;
11533;SDS011;5823;50.588;8.462;2023-09-19T14:16:46;0.47;;;0.47;;
11533;SDS011;5823;50.588;8.462;2023-09-19T14:19:12;1.05;;;0.40;;
11533;SDS011;5823;50.588;8.462;2023-09-19T14:21:41;0.93;;;0.30;;
11533;SDS011;5823;50.588;8.462;2023-09-19T14:24:07;0.35;;;0.35;;
11533;SDS011;5823;50.588;8.462;2023-09-19T14:26:34;1.58;;;0.50;;
11533;SDS011;5823;50.588;8.462;2023-09-19T14:29:02;0.50;;;0.30;;
11533;SDS011;5823;50.588;8.462;2023-09-19T14:31:28;0.30;;;0.30;;
11533;SDS011;5823;50.588;8.462;2023-09-19T14:33:54;0.30;;;0.13;;
11533;SDS011;5823;50.588;8.462;2023-09-19T14:36:22;0.73;;;0.38;;
11533;SDS011;5823;50.588;8.462;2023-09-19T14:38:51;0.70;;;0.38;;
11533;SDS011;5823;50.588;8.462;2023-09-19T14:41:19;0.20;;;0.20;;
11533;SDS011;5823;50.588;8.462;2023-09-19T14:43:45;0.38;;;0.30;;
11533;SDS011;5823;50.588;8.462;2023-09-19T14:46:12;0.35;;;0.28;;
11533;SDS011;5823;50.588;8.462;2023-09-19T14:48:39;0.98;;;0.52;;
11533;SDS011;5823;50.588;8.462;2023-09-19T14:51:06;1.70;;;0.60;;
11533;SDS011;5823;50.588;8.462;2023-09-19T14:53:33;0.32;;;0.32;;
11533;SDS011;5823;50.588;8.462;2023-09-19T14:56:00;0.60;;;0.40;;
11533;SDS011;5823;50.588;8.462;2023-09-19T14:58:28;0.30;;;0.30;;
11533;SDS011;5823;50.588;8.462;2023-09-19T15:01:01;1.08;;;0.50;;
11533;SDS011;5823;50.588;8.462;2023-09-19T15:03:28;0.30;;;0.30;;
11533;SDS011;5823;50.588;8.462;2023-09-19T15:05:58;0.20;;;0.20;;
11533;SDS011;5823;50.588;8.462;2023-09-19T15:08:25;0.28;;;0.28;;
11533;SDS011;5823;50.588;8.462;2023-09-19T15:10:51;0.32;;;0.30;;
11533;SDS011;5823;50.588;8.462;2023-09-19T15:13:18;0.10;;;0.10;;
11533;SDS011;5823;50.588;8.462;2023-09-19T15:15:45;0.30;;;0.30;;
11533;SDS011;5823;50.588;8.462;2023-09-19T15:18:13;0.20;;;0.20;;
11533;SDS011;5823;50.588;8.462;2023-09-19T15:20:43;0.30;;;0.30;;
11533;SDS011;5823;50.588;8.462;2023-09-19T15:23:10;0.25;;;0.25;;